Time,TemperatureF,DewpointF,PressureIn,WindDirection,WindDirectionDegrees,WindSpeedMPH,WindSpeedGustMPH,Humidity,HourlyPrecipIn,Conditions,Clouds,dailyrainin,SoftwareType,DateUTC
2013-08-18 00:00:00,60.4,60.1,30.13,North,32767,0.0,0.0,99,0.00,,,0.12,Wunderground v.1.15,2013-08-18 04:00:00,
2013-08-18 00:05:00,60.3,60.0,30.11,North,32767,0.0,0.0,99,0.00,,,0.00,Wunderground v.1.15,2013-08-18 04:05:00,
2013-08-18 00:10:00,60.2,59.9,30.12,North,360,0.0,0.0,99,0.00,,,0.00,Wunderground v.1.15,2013-08-18 04:10:00,
2013-08-18 00:15:00,60.2,60.2,30.12,North,360,0.0,0.0,100,0.00,,,0.00,Wunderground v.1.15,2013-08-18 04:15:00,
2013-08-18 00:20:00,60.2,60.2,30.12,North,360,0.0,0.0,100,0.00,,,0.00,Wunderground v.1.15,2013-08-18 04:20:00,
2013-08-18 00:25:00,60.2,60.2,30.12,North,32767,0.0,0.0,100,0.00,,,0.00,Wunderground v.1.15,2013-08-18 04:25:00,
2013-08-18 00:30:00,60.1,60.1,30.12,North,32767,0.0,0.0,100,0.00,,,0.00,Wunderground v.1.15,2013-08-18 04:30:00,
2013-08-18 00:39:00,60.0,60.0,30.12,North,32767,0.0,0.0,100,0.00,,,0.00,Wunderground v.1.15,2013-08-18 04:39:00,
2013-08-18 00:45:00,60.0,60.0,30.13,North,32767,0.0,0.0,100,0.00,,,0.00,Wunderground v.1.15,2013-08-18 04:45:00,
2013-08-18 00:55:00,60.1,60.1,30.12,North,32767,0.0,0.0,100,0.00,,,0.00,Wunderground v.1.15,2013-08-18 04:55:00,
2013-08-18 01:05:00,60.1,60.1,30.12,North,360,0.0,0.0,100,0.00,,,0.00,Wunderground v.1.15,2013-08-18 05:05:00,
2013-08-18 01:15:00,60.1,60.1,30.12,North,32767,0.0,0.0,100,0.00,,,0.00,Wunderground v.1.15,2013-08-18 05:15:00,
2013-08-18 01:20:00,60.1,60.1,30.12,North,360,0.0,0.0,100,0.00,,,0.00,Wunderground v.1.15,2013-08-18 05:20:00,
2013-08-18 01:30:00,60.2,60.2,30.11,North,360,0.0,0.0,100,0.00,,,0.00,Wunderground v.1.15,2013-08-18 05:30:00,
2013-08-18 01:40:00,60.3,60.3,30.11,North,32767,0.0,0.0,100,0.00,,,0.00,Wunderground v.1.15,2013-08-18 05:40:00,
2013-08-18 01:50:00,60.2,60.2,30.12,North,360,0.0,0.0,100,0.00,,,0.00,Wunderground v.1.15,2013-08-18 05:50:00,
2013-08-18 02:00:00,60.2,60.2,30.12,North,360,0.0,0.0,100,0.00,,,0.00,Wunderground v.1.15,2013-08-18 06:00:00,
2013-08-18 02:05:00,60.1,60.1,30.12,North,360,0.0,0.0,100,0.00,,,0.00,Wunderground v.1.15,2013-08-18 06:05:00,
2013-08-18 02:15:00,60.1,60.1,30.12,North,32767,0.0,0.0,100,0.00,,,0.00,Wunderground v.1.15,2013-08-18 06:15:00,
2013-08-18 02:25:00,60.1,60.1,30.11,North,32767,0.0,0.0,100,0.00,,,0.00,Wunderground v.1.15,2013-08-18 06:25:00,
2013-08-18 02:35:00,60.1,60.1,30.11,North,32767,0.0,0.0,100,0.00,,,0.00,Wunderground v.1.15,2013-08-18 06:35:00,
2013-08-18 02:45:00,60.0,60.0,30.11,North,360,0.0,0.0,100,0.00,,,0.00,Wunderground v.1.15,2013-08-18 06:45:00,
2013-08-18 02:55:00,60.0,60.0,30.10,North,32767,0.0,0.0,100,0.00,,,0.00,Wunderground v.1.15,2013-08-18 06:55:00,
2013-08-18 03:05:00,60.1,60.1,30.10,North,360,0.0,0.0,100,0.00,,,0.00,Wunderground v.1.15,2013-08-18 07:05:00,
2013-08-18 03:15:00,60.0,60.0,30.10,North,32767,0.0,0.0,100,0.00,,,0.00,Wunderground v.1.15,2013-08-18 07:15:00,
2013-08-18 03:25:00,60.0,60.0,30.11,North,32767,0.0,0.0,100,0.00,,,0.00,Wunderground v.1.15,2013-08-18 07:25:00,
2013-08-18 03:30:00,59.9,59.9,30.11,North,32767,0.0,0.0,100,0.00,,,0.00,Wunderground v.1.15,2013-08-18 07:30:00,
2013-08-18 03:35:00,60.0,60.0,30.11,North,32767,0.0,0.0,100,0.00,,,0.00,Wunderground v.1.15,2013-08-18 07:35:00,
2013-08-18 03:45:00,60.1,60.1,30.10,North,32767,0.0,0.0,100,0.00,,,0.00,Wunderground v.1.15,2013-08-18 07:45:00,
2013-08-18 03:55:00,60.1,60.1,30.11,North,360,0.0,0.0,100,0.00,,,0.00,Wunderground v.1.15,2013-08-18 07:55:00,
2013-08-18 04:00:00,60.1,60.1,30.10,North,32767,0.0,0.0,100,0.00,,,0.00,Wunderground v.1.15,2013-08-18 08:00:00,
2013-08-18 04:05:00,60.1,60.1,30.11,North,32767,0.0,0.0,100,0.00,,,0.00,Wunderground v.1.15,2013-08-18 08:05:00,
2013-08-18 04:15:00,60.1,60.1,30.10,North,360,0.0,0.0,100,0.00,,,0.00,Wunderground v.1.15,2013-08-18 08:15:00,
2013-08-18 07:20:00,59.9,59.9,30.14,North,32767,0.0,0.0,100,0.00,,,0.01,Wunderground v.1.15,2013-08-18 11:20:00,
2013-08-18 07:30:00,60.0,60.0,30.13,North,32767,0.0,0.0,100,0.00,,,0.01,Wunderground v.1.15,2013-08-18 11:30:00,
2013-08-18 07:39:00,60.0,60.0,30.14,North,360,0.0,0.0,100,0.00,,,0.01,Wunderground v.1.15,2013-08-18 11:39:00,
2013-08-18 07:44:00,60.0,60.0,30.14,North,360,0.0,0.0,100,0.00,,,0.01,Wunderground v.1.15,2013-08-18 11:44:00,
2013-08-18 07:50:00,60.1,60.1,30.14,North,32767,0.0,0.0,100,0.00,,,0.01,Wunderground v.1.15,2013-08-18 11:50:00,
2013-08-18 07:55:00,60.2,60.2,30.14,North,32767,0.0,0.0,100,0.00,,,0.01,Wunderground v.1.15,2013-08-18 11:55:00,
2013-08-18 08:05:00,60.3,60.3,30.14,North,360,0.0,0.0,100,0.00,,,0.02,Wunderground v.1.15,2013-08-18 12:05:00,
2013-08-18 08:14:00,60.3,60.3,30.15,North,360,0.0,0.0,100,0.00,,,0.02,Wunderground v.1.15,2013-08-18 12:14:00,
2013-08-18 08:20:00,60.4,60.4,30.15,North,32767,0.0,0.0,100,0.00,,,0.02,Wunderground v.1.15,2013-08-18 12:20:00,
2013-08-18 08:30:00,60.5,60.5,30.15,North,32767,0.0,0.0,100,0.00,,,0.02,Wunderground v.1.15,2013-08-18 12:30:00,
2013-08-18 08:34:00,60.7,60.7,30.16,North,32767,0.0,0.0,100,0.00,,,0.02,Wunderground v.1.15,2013-08-18 12:34:00,
2013-08-18 08:44:00,60.8,60.8,30.16,North,360,0.0,0.0,100,0.00,,,0.02,Wunderground v.1.15,2013-08-18 12:44:00,
2013-08-18 08:50:00,60.8,60.8,30.16,North,32767,0.0,0.0,100,0.00,,,0.02,Wunderground v.1.15,2013-08-18 12:50:00,
2013-08-18 08:55:00,60.9,60.9,30.16,North,32767,0.0,0.0,100,0.00,,,0.02,Wunderground v.1.15,2013-08-18 12:55:00,
2013-08-18 09:00:00,60.9,60.9,30.16,North,32767,0.0,0.0,100,0.00,,,0.02,Wunderground v.1.15,2013-08-18 13:00:00,
2013-08-18 09:05:00,61.0,61.0,30.16,North,32767,0.0,0.0,100,0.00,,,0.02,Wunderground v.1.15,2013-08-18 13:05:00,
2013-08-18 09:15:00,61.2,61.2,30.16,North,32767,0.0,0.0,100,0.00,,,0.02,Wunderground v.1.15,2013-08-18 13:15:00,
2013-08-18 09:25:00,61.3,61.3,30.16,North,32767,0.0,0.0,100,0.00,,,0.03,Wunderground v.1.15,2013-08-18 13:25:00,
2013-08-18 09:29:00,61.4,61.4,30.16,North,32767,0.0,0.0,100,0.00,,,0.03,Wunderground v.1.15,2013-08-18 13:29:00,
2013-08-18 09:34:00,61.4,61.4,30.14,North,32767,0.0,0.0,100,0.05,,,0.04,Wunderground v.1.15,2013-08-18 13:34:00,
2013-08-18 09:39:00,61.5,61.5,30.15,North,360,0.0,0.0,100,0.22,,,0.06,Wunderground v.1.15,2013-08-18 13:39:00,
2013-08-18 09:49:00,61.8,61.8,30.16,North,360,0.0,0.0,100,0.05,,,0.06,Wunderground v.1.15,2013-08-18 13:49:00,
2013-08-18 09:55:00,62.0,62.0,30.16,North,360,0.0,0.0,100,0.00,,,0.06,Wunderground v.1.15,2013-08-18 13:55:00,
2013-08-18 10:00:00,62.0,62.0,30.17,North,360,0.0,0.0,100,0.00,,,0.06,Wunderground v.1.15,2013-08-18 14:00:00,
2013-08-18 10:05:00,61.8,61.8,30.17,North,32767,0.0,0.0,100,0.00,,,0.06,Wunderground v.1.15,2013-08-18 14:05:00,
2013-08-18 10:14:00,61.6,61.6,30.18,North,360,0.0,0.0,100,0.00,,,0.06,Wunderground v.1.15,2013-08-18 14:14:00,
2013-08-18 10:19:00,61.6,61.6,30.18,North,32767,0.0,0.0,100,0.00,,,0.06,Wunderground v.1.15,2013-08-18 14:19:00,
2013-08-18 10:29:00,62.0,62.0,30.17,North,360,0.0,0.0,100,0.00,,,0.06,Wunderground v.1.15,2013-08-18 14:29:00,
2013-08-18 10:40:00,62.6,62.6,30.18,North,360,0.0,0.0,100,0.00,,,0.06,Wunderground v.1.15,2013-08-18 14:40:00,
2013-08-18 10:49:00,62.9,62.9,30.18,North,360,0.0,0.0,100,0.00,,,0.06,Wunderground v.1.15,2013-08-18 14:49:00,
2013-08-18 10:59:00,63.0,63.0,30.18,North,360,0.0,0.0,100,0.00,,,0.06,Wunderground v.1.15,2013-08-18 14:59:00,
2013-08-18 11:05:00,63.1,63.1,30.18,North,32767,0.0,0.0,100,0.00,,,0.06,Wunderground v.1.15,2013-08-18 15:05:00,
2013-08-18 11:14:00,63.7,63.7,30.18,North,32767,0.0,0.0,100,0.00,,,0.06,Wunderground v.1.15,2013-08-18 15:14:00,
2013-08-18 11:24:00,63.7,63.7,30.18,North,360,0.0,0.0,100,0.00,,,0.06,Wunderground v.1.15,2013-08-18 15:24:00,
2013-08-18 11:30:00,63.7,63.7,30.18,North,32767,0.0,0.0,100,0.00,,,0.06,Wunderground v.1.15,2013-08-18 15:30:00,
2013-08-18 11:39:00,63.9,63.9,30.18,North,32767,0.0,0.0,100,0.00,,,0.06,Wunderground v.1.15,2013-08-18 15:39:00,
2013-08-18 11:49:00,63.9,63.9,30.18,North,32767,0.0,0.0,100,0.00,,,0.06,Wunderground v.1.15,2013-08-18 15:49:00,
2013-08-18 12:00:00,63.5,63.5,30.19,North,360,0.0,0.0,100,0.00,,,0.06,Wunderground v.1.15,2013-08-18 16:00:00,
2013-08-18 12:05:00,63.3,63.3,30.19,North,360,0.0,0.0,100,0.00,,,0.06,Wunderground v.1.15,2013-08-18 16:05:00,
2013-08-18 12:15:00,63.1,63.1,30.19,North,360,0.0,0.0,100,0.00,,,0.06,Wunderground v.1.15,2013-08-18 16:15:00,
2013-08-18 12:24:00,63.1,63.1,30.18,North,32767,0.0,0.0,100,0.00,,,0.06,Wunderground v.1.15,2013-08-18 16:24:00,
2013-08-18 12:34:00,63.5,63.5,30.18,North,32767,0.0,0.0,100,0.00,,,0.06,Wunderground v.1.15,2013-08-18 16:34:00,
2013-08-18 12:45:00,64.5,64.5,30.17,North,32767,0.0,0.0,100,0.00,,,0.06,Wunderground v.1.15,2013-08-18 16:45:00,
2013-08-18 12:49:00,65.0,65.0,30.17,North,32767,0.0,0.0,100,0.00,,,0.06,Wunderground v.1.15,2013-08-18 16:49:00,
2013-08-18 12:59:00,65.9,65.9,30.17,North,32767,0.0,0.0,100,0.00,,,0.06,Wunderground v.1.15,2013-08-18 16:59:00,
2013-08-18 13:05:00,65.8,65.8,30.16,North,32767,0.0,0.0,100,0.00,,,0.06,Wunderground v.1.15,2013-08-18 17:05:00,
2013-08-18 13:14:00,68.4,68.4,30.15,North,32767,0.0,0.0,100,0.00,,,0.06,Wunderground v.1.15,2013-08-18 17:14:00,
2013-08-18 13:19:00,67.1,67.1,30.16,North,32767,0.0,0.0,100,0.00,,,0.06,Wunderground v.1.15,2013-08-18 17:19:00,
2013-08-18 13:24:00,67.6,67.6,30.16,North,32767,0.0,0.0,100,0.00,,,0.06,Wunderground v.1.15,2013-08-18 17:24:00,
2013-08-18 13:34:00,68.1,68.1,30.15,North,32767,0.0,0.0,100,0.00,,,0.06,Wunderground v.1.15,2013-08-18 17:34:00,
2013-08-18 13:39:00,68.1,68.1,30.15,North,360,0.0,0.0,100,0.00,,,0.06,Wunderground v.1.15,2013-08-18 17:39:00,
2013-08-18 13:49:00,68.5,68.2,30.15,North,360,0.0,0.0,99,0.00,,,0.06,Wunderground v.1.15,2013-08-18 17:49:00,
2013-08-18 13:55:00,69.2,68.6,30.15,North,360,0.0,0.0,98,0.00,,,0.06,Wunderground v.1.15,2013-08-18 17:55:00,
2013-08-18 14:05:00,70.7,69.2,30.14,North,360,0.0,0.0,95,0.00,,,0.06,Wunderground v.1.15,2013-08-18 18:05:00,
2013-08-18 14:14:00,70.7,69.2,30.15,North,32767,0.0,0.0,95,0.00,,,0.06,Wunderground v.1.15,2013-08-18 18:14:00,
2013-08-18 14:24:00,70.2,67.8,30.14,North,360,0.0,0.0,92,0.00,,,0.06,Wunderground v.1.15,2013-08-18 18:24:00,
2013-08-18 14:34:00,71.7,69.3,30.13,North,32767,0.0,0.0,92,0.00,,,0.06,Wunderground v.1.15,2013-08-18 18:34:00,
2013-08-18 14:45:00,71.7,68.9,30.13,North,32767,0.0,0.0,91,0.00,,,0.06,Wunderground v.1.15,2013-08-18 18:45:00,
2013-08-18 14:54:00,72.1,69.3,30.13,North,360,0.0,0.0,91,0.00,,,0.06,Wunderground v.1.15,2013-08-18 18:54:00,
2013-08-18 14:59:00,72.0,69.2,30.13,North,360,0.0,0.0,91,0.00,,,0.06,Wunderground v.1.15,2013-08-18 18:59:00,
2013-08-18 15:05:00,72.3,68.5,30.13,North,32767,0.0,0.0,88,0.00,,,0.06,Wunderground v.1.15,2013-08-18 19:05:00,
2013-08-18 15:14:00,73.2,70.4,30.12,North,32767,0.0,0.0,91,0.00,,,0.06,Wunderground v.1.15,2013-08-18 19:14:00,
2013-08-18 15:24:00,73.3,69.2,30.12,North,360,0.0,0.0,87,0.00,,,0.06,Wunderground v.1.15,2013-08-18 19:24:00,
2013-08-18 15:35:00,72.9,68.5,30.11,North,32767,0.0,0.0,86,0.00,,,0.06,Wunderground v.1.15,2013-08-18 19:35:00,
2013-08-18 15:44:00,72.4,68.0,30.11,North,32767,0.0,0.0,86,0.00,,,0.06,Wunderground v.1.15,2013-08-18 19:44:00,
2013-08-18 15:54:00,71.9,67.8,30.11,North,32767,0.0,0.0,87,0.00,,,0.06,Wunderground v.1.15,2013-08-18 19:54:00,
2013-08-18 16:05:00,71.7,68.0,30.11,North,32767,0.0,0.0,88,0.00,,,0.06,Wunderground v.1.15,2013-08-18 20:05:00,
2013-08-18 16:14:00,71.4,67.3,30.11,North,32767,0.0,0.0,87,0.00,,,0.06,Wunderground v.1.15,2013-08-18 20:14:00,
2013-08-18 16:24:00,71.0,66.9,30.11,North,32767,0.0,0.0,87,0.00,,,0.06,Wunderground v.1.15,2013-08-18 20:24:00,
2013-08-18 16:34:00,70.3,67.2,30.11,North,360,0.0,0.0,90,0.00,,,0.06,Wunderground v.1.15,2013-08-18 20:34:00,
2013-08-18 16:39:00,70.1,67.7,30.11,North,32767,0.0,0.0,92,0.00,,,0.06,Wunderground v.1.15,2013-08-18 20:39:00,
2013-08-18 16:44:00,69.9,67.5,30.10,North,360,0.0,0.0,92,0.00,,,0.06,Wunderground v.1.15,2013-08-18 20:44:00,
2013-08-18 16:54:00,69.7,67.3,30.10,North,32767,0.0,0.0,92,0.00,,,0.06,Wunderground v.1.15,2013-08-18 20:54:00,
2013-08-18 16:59:00,69.2,65.8,30.10,North,360,0.0,0.0,89,0.00,,,0.06,Wunderground v.1.15,2013-08-18 20:59:00,
2013-08-18 17:05:00,68.9,65.8,30.10,North,32767,0.0,0.0,90,0.00,,,0.06,Wunderground v.1.15,2013-08-18 21:05:00,
2013-08-18 17:14:00,68.7,65.6,30.10,North,32767,0.0,0.0,90,0.00,,,0.06,Wunderground v.1.15,2013-08-18 21:14:00,
2013-08-18 17:24:00,68.9,66.2,30.10,North,32767,0.0,0.0,91,0.00,,,0.06,Wunderground v.1.15,2013-08-18 21:24:00,
2013-08-18 17:29:00,69.1,66.7,30.10,North,32767,0.0,0.0,92,0.00,,,0.06,Wunderground v.1.15,2013-08-18 21:29:00,
2013-08-18 17:35:00,69.2,66.8,30.10,North,32767,0.0,0.0,92,0.00,,,0.06,Wunderground v.1.15,2013-08-18 21:35:00,
2013-08-18 17:44:00,69.1,66.7,30.10,North,32767,0.0,0.0,92,0.00,,,0.06,Wunderground v.1.15,2013-08-18 21:44:00,
2013-08-18 17:54:00,69.2,67.1,30.10,North,32767,0.0,0.0,93,0.00,,,0.06,Wunderground v.1.15,2013-08-18 21:54:00,
2013-08-18 18:05:00,69.3,67.2,30.10,North,32767,0.0,0.0,93,0.00,,,0.06,Wunderground v.1.15,2013-08-18 22:05:00,
2013-08-18 18:14:00,69.0,66.6,30.10,North,32767,0.0,0.0,92,0.00,,,0.06,Wunderground v.1.15,2013-08-18 22:14:00,
2013-08-18 18:24:00,68.9,66.8,30.10,North,360,0.0,0.0,93,0.00,,,0.06,Wunderground v.1.15,2013-08-18 22:24:00,
2013-08-18 18:34:00,68.7,66.6,30.10,North,360,0.0,0.0,93,0.00,,,0.06,Wunderground v.1.15,2013-08-18 22:34:00,
2013-08-18 18:44:00,68.6,66.8,30.10,North,360,0.0,0.0,94,0.00,,,0.06,Wunderground v.1.15,2013-08-18 22:44:00,
2013-08-18 18:49:00,68.4,66.3,30.10,North,360,0.0,0.0,93,0.00,,,0.06,Wunderground v.1.15,2013-08-18 22:49:00,
2013-08-18 18:54:00,68.3,66.2,30.10,North,360,0.0,0.0,93,0.00,,,0.06,Wunderground v.1.15,2013-08-18 22:54:00,
2013-08-18 19:05:00,68.3,66.5,30.10,North,360,0.0,0.0,94,0.00,,,0.07,Wunderground v.1.15,2013-08-18 23:05:00,
2013-08-18 19:14:00,68.3,66.8,30.11,North,32767,0.0,0.0,95,0.07,,,0.08,Wunderground v.1.15,2013-08-18 23:14:00,
2013-08-18 19:24:00,68.2,67.0,30.11,North,32767,0.0,0.0,96,0.00,,,0.08,Wunderground v.1.15,2013-08-18 23:24:00,
2013-08-18 19:34:00,67.7,66.5,30.12,North,32767,0.0,0.0,96,0.00,,,0.08,Wunderground v.1.15,2013-08-18 23:34:00,
2013-08-18 19:44:00,67.2,66.0,30.13,North,32767,0.0,0.0,96,0.00,,,0.08,Wunderground v.1.15,2013-08-18 23:44:00,
2013-08-18 19:54:00,66.5,65.3,30.13,North,32767,0.0,0.0,96,0.00,,,0.08,Wunderground v.1.15,2013-08-18 23:54:00,
2013-08-18 19:59:00,66.3,65.1,30.13,North,32767,0.0,0.0,96,0.00,,,0.08,Wunderground v.1.15,2013-08-18 23:59:00,
2013-08-18 20:05:00,65.9,64.7,30.13,North,32767,0.0,0.0,96,0.00,,,0.08,Wunderground v.1.15,2013-08-19 00:05:00,
2013-08-18 20:14:00,65.6,64.7,30.13,North,360,0.0,0.0,97,0.00,,,0.08,Wunderground v.1.15,2013-08-19 00:14:00,
2013-08-18 20:24:00,65.2,64.3,30.13,North,32767,0.0,0.0,97,0.00,,,0.08,Wunderground v.1.15,2013-08-19 00:24:00,
2013-08-18 20:34:00,65.0,64.1,30.13,North,32767,0.0,0.0,97,0.00,,,0.08,Wunderground v.1.15,2013-08-19 00:34:00,
2013-08-18 20:44:00,64.9,64.0,30.13,North,360,0.0,0.0,97,0.00,,,0.08,Wunderground v.1.15,2013-08-19 00:44:00,
2013-08-18 20:54:00,64.7,64.1,30.13,North,360,0.0,0.0,98,0.00,,,0.08,Wunderground v.1.15,2013-08-19 00:54:00,
2013-08-18 21:04:00,64.7,64.1,30.14,North,32767,0.0,0.0,98,0.00,,,0.08,Wunderground v.1.15,2013-08-19 01:04:00,
2013-08-18 21:14:00,64.7,64.1,30.14,North,32767,0.0,0.0,98,0.00,,,0.08,Wunderground v.1.15,2013-08-19 01:14:00,
2013-08-18 21:19:00,64.7,64.1,30.14,North,32767,0.0,0.0,98,0.00,,,0.08,Wunderground v.1.15,2013-08-19 01:19:00,
2013-08-18 21:29:00,64.7,64.1,30.14,North,32767,0.0,0.0,98,0.00,,,0.08,Wunderground v.1.15,2013-08-19 01:29:00,
2013-08-18 21:39:00,64.6,64.0,30.14,North,360,0.0,0.0,98,0.00,,,0.08,Wunderground v.1.15,2013-08-19 01:39:00,
2013-08-18 21:49:00,64.6,63.7,30.15,North,32767,0.0,0.0,97,0.00,,,0.08,Wunderground v.1.15,2013-08-19 01:49:00,
2013-08-18 21:54:00,64.5,63.6,30.15,North,32767,0.0,0.0,97,0.00,,,0.08,Wunderground v.1.15,2013-08-19 01:54:00,
2013-08-18 22:05:00,64.4,63.8,30.15,North,32767,0.0,0.0,98,0.00,,,0.08,Wunderground v.1.15,2013-08-19 02:05:00,
2013-08-18 22:14:00,64.4,63.8,30.15,North,360,0.0,0.0,98,0.00,,,0.08,Wunderground v.1.15,2013-08-19 02:14:00,
2013-08-18 22:24:00,64.3,63.7,30.15,North,32767,0.0,0.0,98,0.00,,,0.08,Wunderground v.1.15,2013-08-19 02:24:00,
2013-08-18 22:34:00,64.2,63.6,30.16,North,32767,0.0,0.0,98,0.00,,,0.08,Wunderground v.1.15,2013-08-19 02:34:00,
2013-08-18 22:44:00,64.2,63.6,30.16,North,32767,0.0,0.0,98,0.00,,,0.08,Wunderground v.1.15,2013-08-19 02:44:00,
2013-08-18 22:49:00,64.2,63.6,30.16,North,360,0.0,0.0,98,0.00,,,0.09,Wunderground v.1.15,2013-08-19 02:49:00,
2013-08-18 22:59:00,64.0,63.4,30.16,North,360,0.0,0.0,98,0.00,,,0.09,Wunderground v.1.15,2013-08-19 02:59:00,
2013-08-18 23:05:00,64.1,63.5,30.16,North,360,0.0,0.0,98,0.00,,,0.09,Wunderground v.1.15,2013-08-19 03:05:00,
2013-08-18 23:14:00,64.3,64.0,30.16,North,32767,0.0,0.0,99,0.00,,,0.10,Wunderground v.1.15,2013-08-19 03:14:00,
2013-08-18 23:24:00,64.4,64.1,30.16,North,32767,0.0,0.0,99,0.05,,,0.10,Wunderground v.1.15,2013-08-19 03:24:00,
2013-08-18 23:29:00,64.4,64.1,30.16,North,32767,0.0,0.0,99,0.05,,,0.11,Wunderground v.1.15,2013-08-19 03:29:00,
2013-08-18 23:39:00,64.6,64.3,30.16,North,32767,0.0,0.0,99,0.07,,,0.12,Wunderground v.1.15,2013-08-19 03:39:00,
2013-08-18 23:49:00,64.8,64.5,30.15,North,32767,0.0,0.0,99,0.06,,,0.13,Wunderground v.1.15,2013-08-19 03:49:00,
2013-08-18 23:59:00,64.9,64.6,30.15,North,32767,0.0,0.0,99,0.07,,,0.14,Wunderground v.1.15,2013-08-19 03:59:00,